createdAt,value
2019-03-30T15:52:54.110Z,20.00
2019-03-30T15:55:22.636Z,20.10
2019-03-30T15:57:50.744Z,20.00
2019-03-30T16:00:18.995Z,20.00
2019-03-30T16:02:47.487Z,20.20
2019-03-30T16:05:16.077Z,20.50
2019-03-30T16:07:45.566Z,20.20
2019-03-30T16:10:14.367Z,20.00
2019-03-30T16:12:43.333Z,19.50
2019-03-30T16:15:13.410Z,19.30
2019-03-30T16:17:41.638Z,19.00
2019-03-30T16:20:10.264Z,18.60
2019-03-30T16:25:07.306Z,18.40
2019-03-30T16:27:39.042Z,18.30
2019-03-30T16:30:06.543Z,18.30
2019-03-30T16:32:35.800Z,18.20
2019-03-30T16:35:04.268Z,18.10
2019-03-30T16:37:32.558Z,18.10
2019-03-30T16:40:00.766Z,18.20
2019-03-30T16:42:31.520Z,18.00
2019-03-30T16:44:59.665Z,17.80
2019-03-30T16:47:27.807Z,17.50
2019-03-30T16:49:57.108Z,17.30
2019-03-30T16:52:26.951Z,17.40
2019-03-30T16:54:55.126Z,17.40
2019-03-30T16:57:23.511Z,17.30
2019-03-30T16:59:51.771Z,17.10
2019-03-30T17:02:20.134Z,16.90
2019-03-30T17:04:48.724Z,16.90
2019-03-30T17:07:17.012Z,16.90
2019-03-30T17:09:45.618Z,17.00
2019-03-30T17:12:13.794Z,16.90
2019-03-30T17:14:41.969Z,16.90
2019-03-30T17:17:10.550Z,16.90
2019-03-30T17:19:39.216Z,16.90
2019-03-30T17:22:07.386Z,16.60
2019-03-30T17:24:35.557Z,16.50
2019-03-30T17:27:03.920Z,16.40
2019-03-30T17:29:32.079Z,16.40
2019-03-30T17:32:00.237Z,16.30
2019-03-30T17:34:28.871Z,16.10
2019-03-30T17:36:57.019Z,15.80
2019-03-30T17:39:25.270Z,15.50
2019-03-30T17:41:53.554Z,15.40
2019-03-30T17:44:21.639Z,15.30
2019-03-30T17:46:50.126Z,15.30
2019-03-30T17:49:18.293Z,15.10
2019-03-30T17:51:47.479Z,14.90
2019-03-30T17:54:15.914Z,14.70
2019-03-30T17:56:44.513Z,14.50
2019-03-30T17:59:12.643Z,14.20
2019-03-30T18:01:41.120Z,13.90
2019-03-30T18:04:09.289Z,13.80
2019-03-30T18:06:37.764Z,13.60
2019-03-30T18:09:06.004Z,13.50
2019-03-30T18:11:34.199Z,13.30
2019-03-30T18:14:02.374Z,13.10
2019-03-30T18:16:30.634Z,12.80
2019-03-30T18:18:59.137Z,12.60
2019-03-30T18:21:27.387Z,12.40
2019-03-30T18:23:55.548Z,12.30
2019-03-30T18:26:23.781Z,12.10
2019-03-30T18:28:52.389Z,12.00
2019-03-30T18:31:20.901Z,11.80
2019-03-30T18:33:49.626Z,11.70
2019-03-30T18:36:18.580Z,11.60
2019-03-30T18:38:48.609Z,11.50
2019-03-30T18:41:17.133Z,11.40
2019-03-30T18:43:45.778Z,11.30
2019-03-30T18:46:13.919Z,11.10
2019-03-30T18:51:10.434Z,10.80
2019-03-30T18:53:38.881Z,10.80
2019-03-30T18:56:07.433Z,10.70
2019-03-30T18:58:41.866Z,10.60
2019-03-30T19:01:06.413Z,10.60
2019-03-30T19:03:35.023Z,10.60
2019-03-30T19:06:03.639Z,10.60
2019-03-30T19:08:34.587Z,10.60
2019-03-30T19:11:02.022Z,10.60
2019-03-30T19:13:31.024Z,10.70
2019-03-30T19:15:59.283Z,10.70
2019-03-30T19:18:27.933Z,10.80
2019-03-30T19:20:56.129Z,10.90
2019-03-30T19:23:24.543Z,10.90
2019-03-30T19:25:52.703Z,10.90
2019-03-30T19:28:21.601Z,10.80
2019-03-30T19:30:49.844Z,10.80
2019-03-30T19:33:18.010Z,10.70
2019-03-30T19:35:46.299Z,10.60
2019-03-30T19:38:15.415Z,10.50
2019-03-30T19:41:01.501Z,10.30
2019-03-30T19:43:38.123Z,10.20
2019-03-30T19:54:51.745Z,10.20
2019-03-30T20:00:14.724Z,10.00
2019-03-30T20:05:36.911Z,10.10
2019-03-30T20:08:11.894Z,10.10
2019-03-30T20:10:36.757Z,10.00
2019-03-30T20:13:04.845Z,9.80
2019-03-30T20:15:33.857Z,9.60
2019-03-30T20:18:02.195Z,9.50
2019-03-30T20:20:30.750Z,9.40
2019-03-30T20:22:59.301Z,9.40
2019-03-30T20:25:27.897Z,9.30
2019-03-30T20:27:56.438Z,9.30
2019-03-30T20:30:24.717Z,9.20
2019-03-30T20:32:53.347Z,9.30
2019-03-30T20:35:21.762Z,9.20
2019-03-30T20:37:50.023Z,9.20
2019-03-30T20:40:18.271Z,9.20
2019-03-30T20:42:46.661Z,9.20
2019-03-30T20:45:16.004Z,9.10
2019-03-30T20:47:44.307Z,9.10
2019-03-30T20:50:13.321Z,9.30
2019-03-30T20:52:41.828Z,9.40
2019-03-30T20:55:10.165Z,9.60
2019-03-30T20:57:38.425Z,9.70
2019-03-30T21:00:07.662Z,9.90
2019-03-30T21:02:36.176Z,10.10
2019-03-30T21:05:06.563Z,10.10
2019-03-30T21:07:35.507Z,10.20
2019-03-30T21:10:04.830Z,10.20
2019-03-30T21:12:33.094Z,10.30
2019-03-30T21:15:01.464Z,10.30
2019-03-30T21:17:29.690Z,10.50
2019-03-30T21:19:58.049Z,10.60
2019-03-30T21:22:26.394Z,10.70
2019-03-30T21:24:54.644Z,10.80
2019-03-30T21:27:23.122Z,10.70
2019-03-30T21:29:54.793Z,10.70
2019-03-30T21:35:13.474Z,10.60
2019-03-30T21:37:41.644Z,10.70
2019-03-30T21:40:10.266Z,10.80
2019-03-30T21:42:38.812Z,10.90
2019-03-30T21:45:07.873Z,11.00
2019-03-30T21:47:36.097Z,11.10
2019-03-30T21:50:06.159Z,11.30
2019-03-30T21:52:34.314Z,11.30
2019-03-30T21:55:02.519Z,11.20
2019-03-30T21:57:30.683Z,11.10
2019-03-30T22:00:09.804Z,11.10
2019-03-30T22:02:29.316Z,11.10
2019-03-30T22:04:57.474Z,11.00
2019-03-30T22:07:26.740Z,11.10
2019-03-30T22:09:57.780Z,11.20
2019-03-30T22:12:26.023Z,11.20
2019-03-30T22:14:54.223Z,11.30
2019-03-30T22:17:22.759Z,11.40
2019-03-30T22:19:51.053Z,11.40
2019-03-30T22:22:19.313Z,11.30
2019-03-30T22:24:47.818Z,11.30
2019-03-30T22:27:16.238Z,11.30
2019-03-30T22:29:44.433Z,11.40
2019-03-30T22:32:13.179Z,11.50
2019-03-30T22:34:41.343Z,11.70
2019-03-30T22:37:09.533Z,11.70
2019-03-30T22:39:42.268Z,11.50
2019-03-30T22:42:10.858Z,11.40
2019-03-30T22:44:39.181Z,11.30
2019-03-30T22:47:07.368Z,11.30
2019-03-30T22:49:35.559Z,11.30
2019-03-30T22:52:03.725Z,11.30
2019-03-30T22:54:32.275Z,11.30
2019-03-30T22:57:01.359Z,11.30
2019-03-30T22:59:29.847Z,11.30
2019-03-30T23:01:58.264Z,11.30
2019-03-30T23:04:26.844Z,11.40
2019-03-30T23:06:55.472Z,11.40
2019-03-30T23:09:24.804Z,11.50
2019-03-30T23:11:53.615Z,11.50
2019-03-30T23:14:21.796Z,11.70
2019-03-30T23:16:50.203Z,11.90
2019-03-30T23:19:18.374Z,11.90
2019-03-30T23:21:47.090Z,12.00
2019-03-30T23:24:15.817Z,12.00
2019-03-30T23:26:43.990Z,12.10
2019-03-30T23:29:12.235Z,12.20
2019-03-30T23:31:40.760Z,12.30
2019-03-30T23:34:09.404Z,12.30
2019-03-30T23:36:37.604Z,12.40
2019-03-30T23:39:07.340Z,12.40
2019-03-30T23:41:35.758Z,12.40
2019-03-30T23:44:04.928Z,12.40
2019-03-30T23:46:33.102Z,12.40
2019-03-30T23:49:01.386Z,12.40
2019-03-30T23:51:30.014Z,12.40
2019-03-30T23:53:58.414Z,12.40
2019-03-30T23:56:26.612Z,12.30
2019-03-30T23:58:55.197Z,12.30
